Time;durP1;ratioP1;P1;durP2;ratioP2;P2;SDS_P1;SDS_P2;PMS_P1;PMS_P2;Temp;Humidity;BMP_temperature;BMP_pressure;BME280_temperature;BME280_humidity;BME280_pressure;Samples;Min_cycle;Max_cycle;Signal;HPM_P1;HPM_P2
2023/12/09 00:00:22;;;;;;;51.20;13.67;;;9.20;99.90;;;;;;7284249;19;20202;-77
2023/12/09 00:02:47;;;;;;;49.70;14.03;;;9.20;99.90;;;;;;7281153;19;20189;-77
2023/12/09 00:05:13;;;;;;;39.10;13.53;;;9.20;99.90;;;;;;7304127;19;20188;-78
2023/12/09 00:07:39;;;;;;;44.30;14.07;;;9.10;99.90;;;;;;7282378;19;20247;-78
2023/12/09 00:10:05;;;;;;;40.20;12.73;;;9.00;99.90;;;;;;7281753;19;20211;-78
2023/12/09 00:12:31;;;;;;;39.17;12.23;;;9.00;99.90;;;;;;7282891;19;20929;-77
2023/12/09 00:14:56;;;;;;;42.10;12.13;;;9.10;99.90;;;;;;7283567;19;20201;-77
2023/12/09 00:17:22;;;;;;;36.57;11.23;;;9.10;99.90;;;;;;7281558;19;20181;-77
2023/12/09 00:19:48;;;;;;;42.53;12.30;;;9.10;99.90;;;;;;7280514;19;20189;-77
2023/12/09 00:22:13;;;;;;;38.43;12.27;;;9.00;99.90;;;;;;7303493;19;20294;-78
2023/12/09 00:24:39;;;;;;;42.37;12.70;;;8.90;99.90;;;;;;7282771;19;20185;-78
2023/12/09 00:27:05;;;;;;;38.53;13.73;;;8.80;99.90;;;;;;7283140;19;20260;-79
2023/12/09 00:29:31;;;;;;;44.23;14.80;;;8.70;99.90;;;;;;7283201;19;20181;-78
2023/12/09 00:31:56;;;;;;;46.03;14.10;;;8.70;99.90;;;;;;7280039;19;20196;-78
2023/12/09 00:34:22;;;;;;;42.57;13.30;;;8.70;99.90;;;;;;7282240;19;20189;-78
2023/12/09 00:36:48;;;;;;;41.53;13.63;;;8.70;99.90;;;;;;7281805;19;20340;-77
2023/12/09 00:39:14;;;;;;;43.53;13.50;;;8.80;99.90;;;;;;7305195;19;20185;-78
2023/12/09 00:41:39;;;;;;;43.63;13.73;;;8.70;99.90;;;;;;7280472;19;20629;-78
2023/12/09 00:44:05;;;;;;;36.20;14.10;;;8.70;99.90;;;;;;7281608;19;20670;-78
2023/12/09 00:46:31;;;;;;;40.97;14.37;;;8.70;99.90;;;;;;7281660;19;20207;-78
2023/12/09 00:48:58;;;;;;;39.70;14.50;;;8.60;99.90;;;;;;7283412;19;20190;-78
2023/12/09 00:51:24;;;;;;;42.57;13.43;;;8.60;99.90;;;;;;7281591;19;20185;-78
2023/12/09 00:53:49;;;;;;;36.83;13.57;;;8.50;99.90;;;;;;7281663;19;20216;-78
2023/12/09 00:56:15;;;;;;;41.70;13.53;;;8.50;99.90;;;;;;7303199;19;20193;-78
2023/12/09 00:58:41;;;;;;;45.17;14.07;;;8.50;99.90;;;;;;7283720;19;20189;-78
2023/12/09 01:01:07;;;;;;;41.87;13.73;;;8.50;99.90;;;;;;7281285;19;20179;-78
2023/12/09 01:03:33;;;;;;;38.40;12.97;;;8.50;99.90;;;;;;7282681;19;20244;-79
2023/12/09 01:05:58;;;;;;;46.40;14.37;;;8.50;99.90;;;;;;7281124;19;20261;-78
2023/12/09 01:08:25;;;;;;;35.87;12.40;;;8.40;99.90;;;;;;7281912;19;20189;-78
2023/12/09 01:10:52;;;;;;;37.10;12.83;;;8.50;99.90;;;;;;7281951;19;20195;-77
2023/12/09 01:13:18;;;;;;;40.27;12.87;;;8.50;99.90;;;;;;7284200;19;20295;-78
2023/12/09 01:15:43;;;;;;;43.47;13.53;;;8.50;99.90;;;;;;7309517;19;20180;-78
2023/12/09 01:18:09;;;;;;;40.90;13.47;;;8.50;99.90;;;;;;7287546;19;20181;-78
2023/12/09 01:20:35;;;;;;;42.90;13.60;;;8.50;99.90;;;;;;7288244;19;20189;-78
2023/12/09 01:23:00;;;;;;;50.27;14.23;;;8.50;99.90;;;;;;7289299;19;20252;-78
2023/12/09 01:25:26;;;;;;;38.87;12.60;;;8.50;99.90;;;;;;7288982;19;20193;-78
2023/12/09 01:27:52;;;;;;;38.93;13.40;;;8.50;99.90;;;;;;7286306;19;20207;-78
2023/12/09 01:30:18;;;;;;;43.93;13.90;;;8.50;99.90;;;;;;7287947;19;20231;-77
2023/12/09 01:32:43;;;;;;;40.17;12.77;;;8.50;99.90;;;;;;7310385;19;20181;-78
2023/12/09 01:35:10;;;;;;;46.40;13.17;;;8.50;99.90;;;;;;7287710;19;20208;-78
2023/12/09 01:37:35;;;;;;;39.93;13.60;;;8.50;99.90;;;;;;7289184;19;20197;-78
2023/12/09 01:40:02;;;;;;;37.87;12.27;;;8.50;99.90;;;;;;7287413;19;20870;-78
2023/12/09 01:42:27;;;;;;;44.63;13.53;;;8.40;99.90;;;;;;7285017;19;20215;-77
2023/12/09 01:44:53;;;;;;;45.40;13.40;;;8.50;99.90;;;;;;7286189;19;20602;-78
2023/12/09 01:47:19;;;;;;;39.30;13.43;;;8.40;99.90;;;;;;7287244;19;20192;-77
2023/12/09 01:49:44;;;;;;;43.77;13.87;;;8.40;99.90;;;;;;7309805;19;20181;-78
2023/12/09 01:52:12;;;;;;;38.67;12.43;;;8.30;99.90;;;;;;7288118;19;20667;-77
2023/12/09 01:54:38;;;;;;;38.13;12.53;;;8.30;99.90;;;;;;7286710;19;20192;-78
2023/12/09 01:57:04;;;;;;;40.80;12.77;;;8.40;99.90;;;;;;7287878;19;20200;-77
2023/12/09 01:59:30;;;;;;;35.87;12.77;;;8.40;99.90;;;;;;7287175;19;20188;-77
2023/12/09 02:01:57;;;;;;;39.77;11.90;;;8.40;99.90;;;;;;7286802;19;20185;-77
2023/12/09 02:04:23;;;;;;;39.90;12.23;;;8.40;99.90;;;;;;7286639;19;20197;-77
2023/12/09 02:06:49;;;;;;;40.20;12.20;;;8.40;99.90;;;;;;7286472;19;20223;-77
2023/12/09 02:09:16;;;;;;;35.40;12.17;;;8.50;99.90;;;;;;7306729;19;20194;-78
2023/12/09 02:11:50;;;;;;;39.07;11.77;;;8.50;99.90;;;;;;7285396;19;20240;-79
2023/12/09 02:14:27;;;;;;;39.03;11.00;;;8.40;99.90;;;;;;7284141;19;20193;-77
2023/12/09 02:17:00;;;;;;;32.73;10.93;;;8.40;99.90;;;;;;7181410;19;2005173;-78
2023/12/09 02:19:26;;;;;;;33.43;10.60;;;8.40;99.90;;;;;;7284701;19;20588;-78
2023/12/09 02:22:00;;;;;;;35.07;10.73;;;8.50;99.90;;;;;;7284206;19;20556;-78
2023/12/09 02:24:29;;;;;;;27.67;10.03;;;8.40;99.90;;;;;;7283769;19;20194;-78
2023/12/09 02:27:04;;;;;;;35.73;10.03;;;8.40;99.90;;;;;;7282751;19;20278;-78
2023/12/09 02:29:35;;;;;;;32.63;10.20;;;8.40;99.90;;;;;;7284012;19;20666;-78
2023/12/09 02:32:05;;;;;;;35.50;10.17;;;8.40;99.90;;;;;;7284494;19;20189;-78
2023/12/09 02:34:33;;;;;;;37.57;10.83;;;8.40;99.90;;;;;;7283295;19;20225;-78
2023/12/09 02:36:59;;;;;;;33.33;9.77;;;8.50;99.90;;;;;;7284792;19;20193;-78
2023/12/09 02:39:25;;;;;;;39.33;9.63;;;8.50;99.90;;;;;;7283318;19;20181;-78
2023/12/09 02:41:54;;;;;;;37.60;9.47;;;8.40;99.90;;;;;;7282647;19;20197;-77
2023/12/09 02:44:20;;;;;;;39.23;9.77;;;8.50;99.90;;;;;;7283954;19;20275;-78
2023/12/09 02:46:54;;;;;;;36.80;10.17;;;8.50;99.90;;;;;;7303959;19;20268;-77
2023/12/09 02:49:20;;;;;;;35.87;9.47;;;8.40;99.90;;;;;;7261771;19;20310;-77
2023/12/09 02:51:46;;;;;;;36.20;10.90;;;8.50;99.90;;;;;;7304893;19;20211;-78
2023/12/09 02:54:11;;;;;;;36.67;9.93;;;8.50;99.90;;;;;;7283287;19;20553;-78
2023/12/09 02:56:37;;;;;;;35.03;10.23;;;8.60;99.90;;;;;;7282790;19;20196;-78
2023/12/09 02:59:03;;;;;;;34.57;10.93;;;8.60;99.90;;;;;;7283708;19;20207;-79
2023/12/09 03:01:29;;;;;;;36.87;10.37;;;8.60;99.90;;;;;;7283455;19;20253;-78
2023/12/09 03:03:54;;;;;;;44.77;11.00;;;8.40;99.90;;;;;;7284459;19;20256;-78
2023/12/09 03:06:20;;;;;;;36.93;11.87;;;8.40;99.90;;;;;;7283455;19;20537;-79
2023/12/09 03:08:46;;;;;;;35.43;11.93;;;8.40;99.90;;;;;;7159813;19;2853329;-79
2023/12/09 03:11:11;;;;;;;41.30;11.20;;;8.40;99.90;;;;;;7286688;19;20189;-78
2023/12/09 03:13:37;;;;;;;31.87;11.57;;;8.40;99.90;;;;;;7285511;19;20540;-79
2023/12/09 03:16:03;;;;;;;37.73;11.67;;;8.50;99.90;;;;;;7285359;19;20546;-77
2023/12/09 03:18:29;;;;;;;44.70;12.20;;;8.40;99.90;;;;;;7285245;19;20712;-78
2023/12/09 03:20:55;;;;;;;37.47;13.00;;;8.40;99.90;;;;;;7284193;19;20269;-78
2023/12/09 03:23:20;;;;;;;42.63;13.20;;;8.40;99.90;;;;;;7285749;19;20184;-78
2023/12/09 03:25:46;;;;;;;41.07;12.47;;;8.30;99.90;;;;;;7302425;19;20201;-77
2023/12/09 03:28:13;;;;;;;41.87;12.47;;;8.20;99.90;;;;;;7295354;19;20740;-79
2023/12/09 03:30:38;;;;;;;38.53;12.37;;;8.20;99.90;;;;;;7285818;19;20188;-79
2023/12/09 03:33:04;;;;;;;36.23;13.23;;;8.30;99.90;;;;;;7284854;19;20189;-78
2023/12/09 03:35:30;;;;;;;43.77;13.83;;;8.30;99.90;;;;;;7285219;19;20189;-78
2023/12/09 03:37:55;;;;;;;46.63;13.07;;;8.40;99.90;;;;;;7280306;19;20185;-79
2023/12/09 03:40:21;;;;;;;41.77;12.83;;;8.40;99.90;;;;;;7283745;19;20189;-78
2023/12/09 03:42:47;;;;;;;37.87;13.63;;;8.40;99.90;;;;;;7296932;19;20197;-78
2023/12/09 03:45:12;;;;;;;40.47;13.10;;;8.50;99.90;;;;;;7300715;19;20192;-78
2023/12/09 03:47:38;;;;;;;43.10;13.27;;;8.50;99.90;;;;;;7283743;19;20185;-78
2023/12/09 03:50:04;;;;;;;40.67;13.57;;;8.50;99.90;;;;;;7282948;19;20189;-79
2023/12/09 03:52:30;;;;;;;46.40;13.33;;;8.50;99.90;;;;;;7284525;19;20256;-78
2023/12/09 03:54:56;;;;;;;41.27;13.70;;;8.50;99.90;;;;;;7282727;19;20204;-78
2023/12/09 03:57:21;;;;;;;39.70;13.13;;;8.60;99.90;;;;;;7284132;19;20189;-79
2023/12/09 03:59:48;;;;;;;41.10;12.40;;;8.50;99.90;;;;;;7294464;19;20192;-78
2023/12/09 04:02:14;;;;;;;42.90;12.93;;;8.50;99.90;;;;;;7305710;19;20204;-79
2023/12/09 04:04:40;;;;;;;39.63;12.83;;;8.60;99.90;;;;;;7283607;19;20193;-79
2023/12/09 04:07:06;;;;;;;40.43;12.03;;;8.70;99.90;;;;;;7282725;19;20186;-78
2023/12/09 04:09:32;;;;;;;45.03;12.97;;;8.70;99.90;;;;;;7283047;19;20261;-78
2023/12/09 04:12:00;;;;;;;37.73;11.07;;;8.70;99.90;;;;;;7283054;19;20228;-78
2023/12/09 04:14:26;;;;;;;42.73;11.90;;;8.80;99.90;;;;;;7284103;19;20193;-78
2023/12/09 04:16:51;;;;;;;43.20;13.10;;;8.90;99.90;;;;;;7283653;19;20668;-77
2023/12/09 04:19:17;;;;;;;33.63;10.63;;;8.80;99.90;;;;;;7293794;19;20200;-76
2023/12/09 04:21:43;;;;;;;32.07;10.20;;;8.90;99.90;;;;;;7301701;19;20193;-78
2023/12/09 04:24:08;;;;;;;35.23;9.57;;;8.90;99.90;;;;;;7284711;19;20201;-78
2023/12/09 04:26:34;;;;;;;30.23;9.50;;;8.90;99.90;;;;;;7281855;19;20189;-78
2023/12/09 04:29:00;;;;;;;29.77;8.40;;;8.80;99.90;;;;;;7282701;19;20553;-78
2023/12/09 04:31:26;;;;;;;36.73;9.47;;;8.90;99.90;;;;;;7283716;19;20190;-78
2023/12/09 04:33:52;;;;;;;32.23;9.00;;;8.90;99.90;;;;;;7283648;19;20196;-78
2023/12/09 04:36:18;;;;;;;31.13;8.37;;;8.90;99.90;;;;;;7291081;19;20199;-77
2023/12/09 04:38:43;;;;;;;37.57;8.90;;;8.90;99.90;;;;;;7304842;19;20216;-78
2023/12/09 04:41:09;;;;;;;36.30;8.63;;;9.00;99.90;;;;;;7282843;19;20681;-78
2023/12/09 04:43:35;;;;;;;30.67;8.87;;;9.10;99.90;;;;;;7281527;19;20193;-78
2023/12/09 04:46:00;;;;;;;28.93;8.40;;;9.10;99.90;;;;;;7281995;19;20257;-78
2023/12/09 04:48:26;;;;;;;32.53;8.20;;;9.20;99.90;;;;;;7283140;19;20192;-78
2023/12/09 04:50:52;;;;;;;32.77;8.30;;;9.20;99.90;;;;;;7280733;19;20185;-78
2023/12/09 04:53:18;;;;;;;30.50;9.20;;;9.20;99.90;;;;;;7288007;19;20189;-78
2023/12/09 04:55:44;;;;;;;29.13;8.50;;;9.30;99.90;;;;;;7303127;19;20199;-78
2023/12/09 04:58:10;;;;;;;30.13;7.70;;;9.30;99.90;;;;;;7282150;19;20202;-78
2023/12/09 05:00:36;;;;;;;26.83;8.00;;;9.30;99.90;;;;;;7283727;19;20221;-78
2023/12/09 05:03:01;;;;;;;29.73;7.40;;;9.30;99.90;;;;;;7282346;19;20197;-78
2023/12/09 05:05:27;;;;;;;30.33;7.97;;;9.20;99.90;;;;;;7282988;19;20264;-78
2023/12/09 05:07:53;;;;;;;27.00;7.87;;;9.20;99.90;;;;;;7284102;19;20213;-78
2023/12/09 05:10:19;;;;;;;22.83;6.77;;;9.30;99.90;;;;;;7281546;19;20201;-77
2023/12/09 05:12:44;;;;;;;31.40;7.20;;;9.30;99.90;;;;;;7302173;19;20193;-78
2023/12/09 05:15:10;;;;;;;26.40;7.13;;;9.30;99.90;;;;;;7279769;19;20193;-78
2023/12/09 05:17:36;;;;;;;23.10;6.80;;;9.30;99.90;;;;;;7281149;19;21520;-78
2023/12/09 05:20:04;;;;;;;23.00;6.23;;;9.40;99.90;;;;;;7282046;19;20197;-78
2023/12/09 05:22:30;;;;;;;25.47;7.20;;;9.50;99.90;;;;;;7282663;19;20252;-78
2023/12/09 05:24:56;;;;;;;25.10;6.80;;;9.50;99.90;;;;;;7279383;19;20562;-78
2023/12/09 05:27:21;;;;;;;24.93;6.60;;;9.50;99.90;;;;;;7280158;19;20184;-78
2023/12/09 05:29:47;;;;;;;27.73;6.30;;;9.40;99.90;;;;;;7296229;19;20195;-78
2023/12/09 05:32:13;;;;;;;26.13;5.80;;;9.30;99.90;;;;;;7295851;19;20293;-78
2023/12/09 05:34:38;;;;;;;26.07;6.47;;;9.30;99.90;;;;;;7280362;19;20186;-78
2023/12/09 05:37:04;;;;;;;21.73;5.53;;;9.40;99.90;;;;;;7279543;19;20214;-78
2023/12/09 05:39:30;;;;;;;22.17;5.60;;;9.40;99.90;;;;;;7282235;19;20215;-78
2023/12/09 05:41:55;;;;;;;23.03;5.53;;;9.40;99.90;;;;;;7280415;19;20202;-77
2023/12/09 05:44:21;;;;;;;23.47;5.07;;;9.40;99.90;;;;;;7280805;19;20186;-76
2023/12/09 05:46:47;;;;;;;22.97;4.63;;;9.30;99.90;;;;;;7295851;19;20197;-76
2023/12/09 05:49:13;;;;;;;22.83;5.93;;;9.20;99.90;;;;;;7294641;19;20177;-77
2023/12/09 05:51:41;;;;;;;17.50;4.90;;;9.20;99.90;;;;;;7281871;19;20185;-77
2023/12/09 05:54:07;;;;;;;26.03;5.37;;;9.30;99.90;;;;;;7281013;19;20228;-78
2023/12/09 05:56:33;;;;;;;25.07;5.13;;;9.30;99.90;;;;;;7280587;19;20182;-77
2023/12/09 05:58:58;;;;;;;19.93;4.97;;;9.30;99.90;;;;;;7281149;19;20259;-77
2023/12/09 06:01:24;;;;;;;24.63;4.53;;;9.30;99.90;;;;;;7287116;19;20192;-77
2023/12/09 06:03:50;;;;;;;24.47;4.30;;;9.30;99.90;;;;;;7287091;19;20202;-76
2023/12/09 06:06:16;;;;;;;28.03;5.27;;;9.30;99.90;;;;;;7307652;19;20195;-77
2023/12/09 06:08:41;;;;;;;24.47;4.30;;;9.30;99.90;;;;;;7286794;19;20278;-77
2023/12/09 06:11:07;;;;;;;28.37;4.87;;;9.30;99.90;;;;;;7287299;19;20192;-77
2023/12/09 06:13:33;;;;;;;18.50;4.20;;;9.40;99.90;;;;;;7286298;19;20182;-77
2023/12/09 06:15:58;;;;;;;25.20;4.23;;;9.40;99.90;;;;;;7285926;19;20202;-77
2023/12/09 06:18:25;;;;;;;27.33;4.37;;;9.40;99.90;;;;;;7286825;19;20186;-77
2023/12/09 06:20:51;;;;;;;20.57;3.87;;;9.40;99.90;;;;;;7286806;19;20306;-77
2023/12/09 06:23:16;;;;;;;20.93;3.83;;;9.40;99.90;;;;;;7309111;19;20178;-76
2023/12/09 06:25:42;;;;;;;27.27;4.13;;;9.30;99.90;;;;;;7288751;19;20181;-77
2023/12/09 06:28:08;;;;;;;18.93;4.07;;;9.40;99.90;;;;;;7285665;19;20209;-78
2023/12/09 06:30:34;;;;;;;22.27;3.63;;;9.30;99.90;;;;;;7287112;19;20558;-78
2023/12/09 06:33:00;;;;;;;26.93;4.30;;;9.20;99.90;;;;;;7286409;19;20189;-78
2023/12/09 06:35:27;;;;;;;20.70;3.80;;;9.20;99.90;;;;;;7286385;19;20186;-77
2023/12/09 06:37:54;;;;;;;23.93;4.63;;;9.20;99.90;;;;;;7286596;19;20185;-77
2023/12/09 06:40:22;;;;;;;20.63;3.83;;;9.20;99.90;;;;;;7285629;19;20486;-77
2023/12/09 06:42:48;;;;;;;22.83;4.90;;;9.30;99.90;;;;;;7296032;19;20263;-77
2023/12/09 06:45:13;;;;;;;20.97;3.97;;;9.40;99.90;;;;;;7305366;19;20189;-77
2023/12/09 06:47:39;;;;;;;24.37;5.03;;;9.40;99.90;;;;;;7286814;19;20208;-77
2023/12/09 06:50:06;;;;;;;19.40;4.13;;;9.40;99.90;;;;;;7286859;19;20688;-77
2023/12/09 06:52:32;;;;;;;23.53;4.07;;;9.50;99.90;;;;;;7285100;19;20193;-77
2023/12/09 06:54:57;;;;;;;18.40;4.27;;;9.50;99.90;;;;;;7286517;19;20679;-77
2023/12/09 06:57:23;;;;;;;27.73;4.47;;;9.40;99.90;;;;;;7286551;19;20189;-77
2023/12/09 06:59:49;;;;;;;25.50;4.47;;;9.40;99.90;;;;;;7286347;19;20198;-77
2023/12/09 07:02:14;;;;;;;15.10;3.70;;;9.30;99.90;;;;;;7308655;19;20842;-77
2023/12/09 07:04:40;;;;;;;24.03;4.47;;;9.30;99.90;;;;;;7285951;19;20228;-77
2023/12/09 07:07:06;;;;;;;25.10;3.90;;;9.30;99.90;;;;;;7284753;19;20652;-77
2023/12/09 07:09:32;;;;;;;23.03;3.87;;;9.30;99.90;;;;;;7285240;19;20872;-78
2023/12/09 07:11:58;;;;;;;25.60;4.27;;;9.20;99.90;;;;;;7279630;19;20186;-77
2023/12/09 07:14:24;;;;;;;22.33;4.60;;;9.30;99.90;;;;;;7283944;19;20193;-78
2023/12/09 07:16:50;;;;;;;23.27;4.80;;;9.40;99.90;;;;;;7282341;19;20183;-77
2023/12/09 07:19:16;;;;;;;21.10;4.30;;;9.40;99.90;;;;;;7304589;19;20610;-77
2023/12/09 07:21:41;;;;;;;21.57;4.43;;;9.30;99.90;;;;;;7281784;19;20209;-78
2023/12/09 07:24:07;;;;;;;23.77;4.33;;;9.30;99.90;;;;;;7281265;19;20198;-78
2023/12/09 07:26:33;;;;;;;25.73;4.70;;;9.40;99.90;;;;;;7281480;19;20210;-78
2023/12/09 07:29:03;;;;;;;23.87;4.27;;;9.40;99.90;;;;;;7281629;19;20248;-78
2023/12/09 07:31:29;;;;;;;25.17;4.87;;;9.40;99.90;;;;;;7283551;19;20185;-79
2023/12/09 07:33:54;;;;;;;20.87;4.30;;;9.40;99.90;;;;;;7282996;19;20193;-79
2023/12/09 07:36:21;;;;;;;19.70;3.60;;;9.40;99.90;;;;;;7282209;19;20670;-78
2023/12/09 07:38:47;;;;;;;19.93;4.37;;;9.40;99.90;;;;;;7307018;19;20633;-78
2023/12/09 07:41:14;;;;;;;25.93;4.37;;;9.40;99.90;;;;;;7284397;19;20194;-79
2023/12/09 07:43:40;;;;;;;23.20;4.27;;;9.40;99.90;;;;;;7284026;19;20210;-79
2023/12/09 07:46:06;;;;;;;23.43;4.33;;;9.50;99.90;;;;;;7283354;19;20636;-78
2023/12/09 07:48:32;;;;;;;22.80;4.03;;;9.40;99.90;;;;;;7285021;19;20272;-79
2023/12/09 07:50:59;;;;;;;19.67;4.50;;;9.40;99.90;;;;;;7282519;19;20587;-78
2023/12/09 07:53:25;;;;;;;22.23;4.53;;;9.50;99.90;;;;;;7285014;19;20276;-78
2023/12/09 07:55:51;;;;;;;21.67;3.70;;;9.60;99.90;;;;;;7284150;19;20227;-78
2023/12/09 07:58:17;;;;;;;24.87;3.97;;;9.50;99.90;;;;;;7305272;19;20189;-79
2023/12/09 08:00:42;;;;;;;23.90;4.43;;;9.60;99.90;;;;;;7284663;19;20189;-79
2023/12/09 08:03:08;;;;;;;20.90;3.83;;;9.60;99.90;;;;;;7283244;19;20187;-80
2023/12/09 08:05:34;;;;;;;17.07;3.30;;;9.60;99.90;;;;;;7282040;19;20660;-78
2023/12/09 08:08:02;;;;;;;19.73;3.50;;;9.50;99.90;;;;;;7283325;19;20197;-78
2023/12/09 08:10:28;;;;;;;19.27;3.37;;;9.60;99.90;;;;;;7283965;19;20201;-79
2023/12/09 08:12:53;;;;;;;16.93;3.80;;;9.50;99.90;;;;;;7283411;19;20199;-79
2023/12/09 08:15:19;;;;;;;18.83;3.70;;;9.50;99.90;;;;;;7281939;19;20201;-78
2023/12/09 08:17:45;;;;;;;18.87;4.03;;;9.50;99.90;;;;;;7306101;19;20699;-79
2023/12/09 08:20:11;;;;;;;15.53;3.43;;;9.50;99.90;;;;;;7284435;19;20190;-80
2023/12/09 08:22:40;;;;;;;25.60;3.90;;;9.60;99.90;;;;;;7282744;19;20628;-79
2023/12/09 08:25:09;;;;;;;20.63;3.80;;;9.70;99.90;;;;;;7283496;19;20649;-79
2023/12/09 08:27:35;;;;;;;18.07;3.87;;;9.70;99.90;;;;;;7281473;19;20906;-79
2023/12/09 08:30:03;;;;;;;22.23;4.43;;;9.70;99.90;;;;;;7283682;19;20192;-79
2023/12/09 08:32:29;;;;;;;23.27;4.33;;;9.80;99.90;;;;;;7283118;19;20219;-78
2023/12/09 08:34:54;;;;;;;19.27;4.07;;;9.80;99.90;;;;;;7282749;19;20658;-78
2023/12/09 08:37:25;;;;;;;19.87;4.43;;;9.90;99.90;;;;;;7282446;19;20193;-78
2023/12/09 08:39:54;;;;;;;15.87;4.30;;;10.00;99.90;;;;;;7282511;19;20602;-78
2023/12/09 08:42:20;;;;;;;25.60;4.40;;;10.00;99.90;;;;;;7283285;19;20201;-78
2023/12/09 08:44:46;;;;;;;15.37;3.50;;;10.00;99.90;;;;;;7305650;19;20190;-79
2023/12/09 08:47:13;;;;;;;23.50;4.27;;;9.90;99.90;;;;;;7281881;19;20510;-79
2023/12/09 08:49:39;;;;;;;21.30;4.80;;;9.90;99.90;;;;;;7282724;19;20197;-79
2023/12/09 08:52:05;;;;;;;16.07;4.20;;;10.00;99.90;;;;;;7284208;19;20257;-79
2023/12/09 08:54:30;;;;;;;26.40;4.87;;;10.00;99.90;;;;;;7283608;19;20532;-79
2023/12/09 08:56:57;;;;;;;19.37;5.10;;;10.00;99.90;;;;;;7283028;19;20192;-79
2023/12/09 08:59:22;;;;;;;22.53;4.40;;;10.00;99.90;;;;;;7282672;19;20194;-79
2023/12/09 09:01:48;;;;;;;18.80;3.87;;;10.00;99.90;;;;;;7291041;19;20700;-79
2023/12/09 09:04:14;;;;;;;14.60;3.10;;;9.90;99.90;;;;;;7303490;19;20197;-80
2023/12/09 09:06:39;;;;;;;16.00;2.80;;;9.90;99.90;;;;;;7280758;19;20203;-78
2023/12/09 09:09:05;;;;;;;16.57;2.70;;;9.80;99.90;;;;;;7281460;19;20186;-79
2023/12/09 09:11:31;;;;;;;12.63;2.50;;;9.80;99.90;;;;;;7281975;19;20191;-80
2023/12/09 09:13:56;;;;;;;12.63;2.77;;;9.70;99.90;;;;;;7279978;19;20189;-79
2023/12/09 09:16:23;;;;;;;13.03;2.97;;;9.60;99.90;;;;;;7281090;19;20194;-79
2023/12/09 09:18:48;;;;;;;13.23;2.73;;;9.60;99.90;;;;;;7287716;19;20186;-79
2023/12/09 09:21:16;;;;;;;12.53;3.00;;;9.60;99.90;;;;;;7301934;19;20723;-80
2023/12/09 09:23:43;;;;;;;13.97;2.63;;;9.60;99.90;;;;;;7281570;19;20192;-80
2023/12/09 09:26:10;;;;;;;11.23;2.73;;;9.60;99.90;;;;;;7279303;19;20189;-79
2023/12/09 09:28:36;;;;;;;11.63;2.27;;;9.50;99.90;;;;;;7280133;19;20654;-79
2023/12/09 09:31:02;;;;;;;10.23;2.30;;;9.60;99.90;;;;;;7281713;19;20219;-79
2023/12/09 09:33:27;;;;;;;13.70;3.17;;;9.50;99.90;;;;;;7281232;19;20192;-79
2023/12/09 09:35:54;;;;;;;8.37;2.23;;;9.50;99.90;;;;;;7285533;19;20189;-79
2023/12/09 09:38:20;;;;;;;5.23;1.83;;;9.40;99.90;;;;;;7288233;19;20194;-79
2023/12/09 09:40:46;;;;;;;6.97;1.93;;;9.40;99.90;;;;;;7309547;19;20699;-79
2023/12/09 09:43:20;;;;;;;5.60;1.50;;;9.30;99.90;;;;;;7288409;19;20192;-79
2023/12/09 09:45:47;;;;;;;7.67;1.73;;;9.30;99.90;;;;;;7288231;19;20189;-79
2023/12/09 09:48:16;;;;;;;8.43;1.87;;;9.30;99.90;;;;;;7287107;19;20668;-79
2023/12/09 09:50:49;;;;;;;5.83;1.40;;;9.30;99.90;;;;;;7287344;19;20242;-79
2023/12/09 09:53:24;;;;;;;9.07;2.10;;;9.30;99.90;;;;;;7287965;19;20215;-79
2023/12/09 09:55:51;;;;;;;4.27;1.60;;;9.30;99.90;;;;;;7265929;19;20192;-78
2023/12/09 09:58:18;;;;;;;10.23;1.73;;;9.30;99.90;;;;;;7309864;19;20639;-79
2023/12/09 10:00:44;;;;;;;8.57;1.60;;;9.30;99.90;;;;;;7288862;19;20282;-79
2023/12/09 10:03:10;;;;;;;6.43;1.50;;;9.30;99.90;;;;;;7287853;19;20648;-79
2023/12/09 10:05:35;;;;;;;7.90;1.67;;;9.20;99.90;;;;;;7287561;19;20193;-79
2023/12/09 10:08:01;;;;;;;9.87;1.40;;;9.30;99.90;;;;;;7286630;19;20201;-79
2023/12/09 10:10:27;;;;;;;9.20;1.47;;;9.30;99.90;;;;;;7287557;19;20258;-79
2023/12/09 10:12:53;;;;;;;8.10;1.50;;;9.30;99.90;;;;;;7288568;19;20223;-79
2023/12/09 10:15:19;;;;;;;8.87;3.27;;;9.30;99.90;;;;;;7291228;19;20205;-79
2023/12/09 10:17:44;;;;;;;8.77;2.37;;;9.30;99.90;;;;;;7309480;19;20181;-80
2023/12/09 10:20:10;;;;;;;6.23;1.30;;;9.20;99.90;;;;;;7286615;19;20206;-80
2023/12/09 10:22:38;;;;;;;8.03;1.40;;;9.20;99.90;;;;;;7287850;19;20212;-80
2023/12/09 10:25:04;;;;;;;5.90;1.30;;;9.20;99.90;;;;;;7287368;19;20204;-80
2023/12/09 10:27:30;;;;;;;6.77;1.37;;;9.30;99.90;;;;;;7288091;19;20206;-81
2023/12/09 10:29:56;;;;;;;6.37;1.10;;;9.20;99.90;;;;;;7287206;19;20672;-80
2023/12/09 10:32:23;;;;;;;5.17;1.17;;;9.20;99.90;;;;;;7283632;19;20194;-81
2023/12/09 10:34:49;;;;;;;4.33;1.40;;;9.20;99.90;;;;;;7288654;19;20186;-80
2023/12/09 10:37:19;;;;;;;7.40;1.50;;;9.30;99.90;;;;;;7307881;19;20195;-81
2023/12/09 10:39:45;;;;;;;3.63;1.20;;;9.30;99.90;;;;;;7287674;19;20597;-81
2023/12/09 10:42:12;;;;;;;6.97;1.40;;;9.30;99.90;;;;;;7286782;19;20748;-81
2023/12/09 10:44:38;;;;;;;6.17;1.40;;;9.30;99.90;;;;;;7285647;19;20662;-80
2023/12/09 10:47:04;;;;;;;5.73;1.30;;;9.20;99.90;;;;;;7286553;19;20213;-80
2023/12/09 10:49:31;;;;;;;4.40;1.00;;;9.20;99.90;;;;;;7287342;19;20228;-81
2023/12/09 10:51:57;;;;;;;7.30;1.20;;;9.20;99.90;;;;;;7287446;19;20185;-81
2023/12/09 10:54:23;;;;;;;5.03;1.20;;;9.20;99.90;;;;;;7285397;19;20213;-81
2023/12/09 10:56:49;;;;;;;7.07;1.20;;;9.30;99.90;;;;;;7294565;19;20197;-80
2023/12/09 10:59:18;;;;;;;4.13;0.77;;;9.20;99.90;;;;;;7307828;19;20578;-82
2023/12/09 11:01:47;;;;;;;7.90;1.20;;;9.30;99.90;;;;;;7287535;19;20193;-83
2023/12/09 11:04:14;;;;;;;3.70;0.80;;;9.20;99.90;;;;;;7285916;19;20181;-80
2023/12/09 11:06:42;;;;;;;6.00;1.00;;;9.20;99.90;;;;;;7285795;19;20203;-80
2023/12/09 11:09:09;;;;;;;6.80;1.10;;;9.20;99.90;;;;;;7286001;19;20203;-82
2023/12/09 11:11:35;;;;;;;4.83;1.23;;;9.30;99.90;;;;;;7288369;19;20252;-82
2023/12/09 11:14:01;;;;;;;9.93;2.40;;;9.30;99.90;;;;;;7287541;19;20189;-82
2023/12/09 11:16:28;;;;;;;5.30;0.97;;;9.30;99.90;;;;;;7287760;19;20195;-82
2023/12/09 11:18:58;;;;;;;5.37;1.00;;;9.30;99.90;;;;;;7286245;19;20864;-81
2023/12/09 11:21:31;;;;;;;3.07;1.10;;;9.30;99.90;;;;;;7285762;19;20192;-81
2023/12/09 11:23:58;;;;;;;6.80;0.93;;;9.40;99.90;;;;;;7286066;19;20202;-81
2023/12/09 11:26:29;;;;;;;4.30;0.90;;;9.30;99.90;;;;;;7284228;19;20696;-81
2023/12/09 11:29:09;;;;;;;4.60;1.00;;;9.20;99.90;;;;;;7284062;19;20186;-81
2023/12/09 11:31:46;;;;;;;6.93;1.20;;;9.10;99.90;;;;;;7286232;19;20232;-82
2023/12/09 11:34:17;;;;;;;8.23;1.07;;;9.10;99.90;;;;;;7286203;19;20181;-82
2023/12/09 11:36:46;;;;;;;4.97;1.27;;;9.10;99.90;;;;;;7286410;19;20207;-82
2023/12/09 11:39:13;;;;;;;5.67;1.30;;;9.10;99.90;;;;;;7286030;19;20281;-82
2023/12/09 11:41:40;;;;;;;5.40;1.10;;;9.10;99.90;;;;;;7285225;19;20862;-83
2023/12/09 11:44:07;;;;;;;5.23;1.10;;;9.10;99.90;;;;;;7284319;19;20216;-81
2023/12/09 11:46:35;;;;;;;6.20;0.90;;;9.10;99.90;;;;;;7285794;19;20188;-81
2023/12/09 11:49:02;;;;;;;3.47;0.80;;;9.10;99.90;;;;;;7285318;19;20249;-81
2023/12/09 11:51:29;;;;;;;4.70;1.30;;;9.20;99.90;;;;;;7282703;19;20667;-81
2023/12/09 11:54:00;;;;;;;5.27;1.50;;;9.10;99.90;;;;;;7282206;19;20200;-81
2023/12/09 11:56:26;;;;;;;2.80;0.80;;;9.10;99.90;;;;;;7283902;19;20188;-81
2023/12/09 11:58:53;;;;;;;2.17;0.80;;;9.10;99.90;;;;;;7281459;19;20201;-81
2023/12/09 12:01:19;;;;;;;4.73;0.90;;;9.00;99.90;;;;;;7295647;19;20181;-80
2023/12/09 12:03:49;;;;;;;3.30;0.80;;;9.00;99.90;;;;;;7305958;19;20647;-81
2023/12/09 12:06:16;;;;;;;3.97;0.90;;;9.00;99.90;;;;;;7263768;19;20213;-79
2023/12/09 12:08:50;;;;;;;7.80;1.07;;;9.00;99.90;;;;;;7281254;19;20634;-81
2023/12/09 12:11:17;;;;;;;4.13;0.80;;;9.00;99.90;;;;;;7280657;19;20682;-81
2023/12/09 12:13:43;;;;;;;3.33;0.67;;;8.90;99.90;;;;;;7278570;19;20192;-82
2023/12/09 12:16:10;;;;;;;3.70;0.80;;;8.90;99.90;;;;;;7280755;19;20186;-81
2023/12/09 12:18:36;;;;;;;6.93;1.30;;;8.90;99.90;;;;;;7279314;19;20200;-82
2023/12/09 12:21:03;;;;;;;2.57;0.90;;;8.90;99.90;;;;;;7279404;19;20540;-80
2023/12/09 12:23:29;;;;;;;3.70;0.93;;;9.00;99.90;;;;;;7280517;19;20189;-80
2023/12/09 12:25:55;;;;;;;7.50;1.13;;;9.10;99.90;;;;;;7279512;19;20210;-80
2023/12/09 12:28:22;;;;;;;3.63;0.70;;;9.10;99.90;;;;;;7278519;19;20203;-81
2023/12/09 12:30:55;;;;;;;7.40;2.03;;;9.10;99.90;;;;;;7299798;19;20189;-80
2023/12/09 12:33:30;;;;;;;4.13;1.53;;;9.10;99.90;;;;;;7280142;19;20858;-81
2023/12/09 12:35:57;;;;;;;7.07;0.80;;;9.10;99.90;;;;;;7279718;19;20571;-81
2023/12/09 12:38:24;;;;;;;6.20;1.50;;;9.10;99.90;;;;;;7278853;19;20215;-81
2023/12/09 12:40:51;;;;;;;4.47;0.80;;;9.20;99.90;;;;;;7279311;19;20262;-81